South Bloomingville, Ohio
Current Conditions -  °F | °C
As of 2:14 PM on Tuesday 21 Oct 2014 (Local Time) from KRZT Reporting Station
Overcast Overcast  
Wind Chill: 50°   Ceiling: 5500
Heat Index: 50°   Visibility: 10mi
Dew Point: 45°   Wind: 8mph
Humidity: 82%   Direction: 340°NNW
Pressure: 30"   Gusts: NA
Location:  39.42°N, 82.6°W
Report Text: KRZT 211814Z AUTO 34007KT 10SM SCT045 OVC055 10/07 A3000 RMK AO2
Loading
Personal Weather Stations






























Interactive Weather Map
Tropical Storm Tracking
New forecast layout! Learn more

10-Day Weather Forecast

Advertisements
Track Severe Weather on mobile